Time;durP1;ratioP1;P1;durP2;ratioP2;P2;SDS_P1;SDS_P2;PMS_P1;PMS_P2;Temp;Humidity;BMP_temperature;BMP_pressure;BME280_temperature;BME280_humidity;BME280_pressure;Samples;Min_cycle;Max_cycle;Signal;HPM_P1;HPM_P2
2022/10/05 00:01:43;;;;;;;0.70;0.70;;;;;;;12.37;82.67;100328.66;5029789;28;20585;-75
2022/10/05 00:04:14;;;;;;;0.60;0.60;;;;;;;12.37;82.58;100323.53;5032487;28;20206;-75
2022/10/05 00:06:41;;;;;;;0.60;0.60;;;;;;;12.40;82.39;100333.75;5032241;28;20233;-75
2022/10/05 00:09:13;;;;;;;0.50;0.50;;;;;;;12.28;82.21;100316.00;5036430;28;20642;-74
2022/10/05 00:11:40;;;;;;;0.50;0.50;;;;;;;12.30;82.64;100327.09;5033930;28;20666;-75
2022/10/05 00:14:12;;;;;;;0.50;0.50;;;;;;;12.29;83.38;100333.13;5036327;28;20220;-75
2022/10/05 00:16:41;;;;;;;0.60;0.60;;;;;;;12.25;83.04;100334.06;5031963;28;20260;-74
2022/10/05 00:19:20;;;;;;;0.57;0.57;;;;;;;12.22;83.15;100333.28;5037465;28;20201;-75
2022/10/05 00:21:47;;;;;;;0.60;0.60;;;;;;;12.26;83.00;100335.75;5032791;28;20204;-75
2022/10/05 00:24:17;;;;;;;0.50;0.50;;;;;;;12.21;83.03;100334.19;5037952;28;20208;-75
2022/10/05 00:26:44;;;;;;;0.53;0.53;;;;;;;12.15;83.18;100324.03;5033593;28;20279;-75
2022/10/05 00:29:19;;;;;;;0.40;0.40;;;;;;;11.93;83.54;100318.47;5035231;28;20209;-75
2022/10/05 00:31:48;;;;;;;0.50;0.50;;;;;;;11.86;84.63;100328.03;5034955;28;20660;-74
2022/10/05 00:34:14;;;;;;;0.40;0.40;;;;;;;11.76;84.86;100325.72;5036044;28;20201;-75
2022/10/05 00:36:42;;;;;;;0.40;0.40;;;;;;;11.72;85.62;100326.66;5037183;28;20220;-74
2022/10/05 00:39:09;;;;;;;0.60;0.60;;;;;;;11.70;86.09;100323.22;5035126;28;20640;-75
2022/10/05 00:41:48;;;;;;;0.40;0.40;;;;;;;11.72;86.05;100322.34;5031240;28;20208;-75
2022/10/05 00:44:30;;;;;;;0.50;0.50;;;;;;;11.60;86.94;100313.13;5024406;28;20692;-75
2022/10/05 00:47:07;;;;;;;0.60;0.60;;;;;;;11.68;87.53;100324.97;5030075;28;20221;-74
2022/10/05 00:49:50;;;;;;;0.60;0.60;;;;;;;11.68;86.96;100324.97;5027775;28;20280;-75
2022/10/05 00:52:26;;;;;;;0.70;0.70;;;;;;;11.63;87.06;100316.53;5032168;28;20201;-74
2022/10/05 00:55:03;;;;;;;0.40;0.40;;;;;;;11.62;87.03;100319.97;5032017;28;20197;-75
2022/10/05 00:57:40;;;;;;;0.40;0.40;;;;;;;11.62;87.79;100317.41;5033031;28;20597;-74
2022/10/05 01:00:12;;;;;;;0.60;0.60;;;;;;;11.62;87.54;100319.97;5032364;28;20238;-75
2022/10/05 01:02:51;;;;;;;0.60;0.60;;;;;;;11.66;87.61;100312.19;5030181;28;20237;-75
2022/10/05 01:05:31;;;;;;;0.57;0.57;;;;;;;11.71;87.62;100319.81;5030081;28;20655;-75
2022/10/05 01:08:08;;;;;;;0.60;0.60;;;;;;;11.72;87.28;100324.06;5030421;28;20210;-75
2022/10/05 01:10:40;;;;;;;0.40;0.40;;;;;;;11.70;87.16;100323.22;5025438;28;20194;-75
2022/10/05 01:13:15;;;;;;;0.63;0.63;;;;;;;11.62;87.04;100304.56;5029873;28;20201;-74
2022/10/05 01:15:47;;;;;;;0.57;0.57;;;;;;;11.64;86.74;100324.19;5030302;28;20295;-75
2022/10/05 01:18:22;;;;;;;0.50;0.50;;;;;;;11.58;86.85;100325.16;5029794;28;20208;-75
2022/10/05 01:21:03;;;;;;;0.47;0.47;;;;;;;11.54;87.42;100326.09;5021236;28;20247;-75
2022/10/05 01:24:02;;;;;;;0.50;0.50;;;;;;;11.51;87.81;100325.31;5030395;28;20205;-75
2022/10/05 01:27:02;;;;;;;0.50;0.50;;;;;;;11.51;87.64;100339.00;5019931;28;20319;-75
2022/10/05 01:29:35;;;;;;;0.50;0.50;;;;;;;11.55;87.75;100335.50;5007077;28;20652;-75
2022/10/05 01:32:12;;;;;;;0.60;0.60;;;;;;;11.55;87.69;100330.34;5029841;28;20248;-75
2022/10/05 01:34:43;;;;;;;0.67;0.67;;;;;;;11.54;87.44;100338.94;5029498;28;20209;-74
2022/10/05 01:37:18;;;;;;;0.57;0.57;;;;;;;11.55;87.51;100330.34;5028273;28;20201;-75
2022/10/05 01:39:56;;;;;;;0.60;0.60;;;;;;;11.52;87.46;100330.41;5029994;28;20209;-75
2022/10/05 01:42:33;;;;;;;0.60;0.60;;;;;;;11.44;88.46;100342.53;5029147;28;20217;-75
2022/10/05 01:45:08;;;;;;;0.47;0.47;;;;;;;11.46;88.06;100351.09;5022872;28;20267;-75
2022/10/05 01:47:43;;;;;;;0.63;0.63;;;;;;;11.42;87.81;100349.44;5021873;28;20296;-75
2022/10/05 01:50:22;;;;;;;0.50;0.50;;;;;;;11.38;88.04;100355.50;5029818;28;20627;-74
2022/10/05 01:52:58;;;;;;;0.60;0.60;;;;;;;11.34;88.46;100358.97;5030211;28;20209;-75
2022/10/05 01:55:31;;;;;;;0.50;0.50;;;;;;;11.27;88.96;100360.00;5029793;28;20244;-75
2022/10/05 01:58:10;;;;;;;0.60;0.60;;;;;;;11.19;89.50;100359.25;5028865;28;20205;-75
2022/10/05 02:00:49;;;;;;;0.60;0.60;;;;;;;11.20;89.75;100355.84;5027405;28;20311;-73
2022/10/05 02:03:19;;;;;;;0.70;0.70;;;;;;;11.21;89.75;100365.22;5027620;28;20197;-74
2022/10/05 02:05:52;;;;;;;1.03;0.70;;;;;;;11.21;89.61;100365.22;5029309;28;20312;-74
2022/10/05 02:08:26;;;;;;;0.80;0.80;;;;;;;11.13;89.81;100372.19;5033331;28;20198;-73
2022/10/05 02:11:01;;;;;;;0.60;0.60;;;;;;;11.11;90.34;100378.25;5033221;28;20265;-75
2022/10/05 02:13:36;;;;;;;0.57;0.57;;;;;;;11.20;89.87;100384.06;5033154;28;20680;-74
2022/10/05 02:16:10;;;;;;;0.57;0.57;;;;;;;11.27;89.90;100377.09;5028296;28;20197;-74
2022/10/05 02:18:45;;;;;;;0.60;0.60;;;;;;;11.33;89.28;100377.00;5032446;28;20200;-74
2022/10/05 02:21:12;;;;;;;0.50;0.50;;;;;;;11.39;88.97;100385.44;5033255;28;20208;-74
2022/10/05 02:23:41;;;;;;;0.50;0.50;;;;;;;11.35;88.78;100372.66;5027866;28;20197;-74
2022/10/05 02:26:11;;;;;;;0.50;0.50;;;;;;;11.50;88.77;100393.78;5031742;28;20213;-74
2022/10/05 02:28:43;;;;;;;0.50;0.50;;;;;;;11.46;88.76;100388.75;5033105;28;20677;-74
2022/10/05 02:31:14;;;;;;;0.93;0.93;;;;;;;11.63;88.43;100409.00;5032935;28;20205;-71
2022/10/05 02:33:41;;;;;;;0.60;0.60;;;;;;;11.64;87.06;100418.38;5028059;28;20194;-74
2022/10/05 02:36:14;;;;;;;0.50;0.50;;;;;;;11.49;86.62;100392.09;5031979;28;20201;-74
2022/10/05 02:38:49;;;;;;;;;;;;;;;11.69;86.36;100414.88;5030107;28;19921;-74
2022/10/05 02:41:21;;;;;;;;;;;;;;;11.74;86.39;100412.22;5033073;28;19928;-73
2022/10/05 02:43:57;;;;;;;0.60;0.60;;;;;;;11.64;86.72;100400.38;5031979;28;20398;-75
2022/10/05 02:46:35;;;;;;;0.70;0.70;;;;;;;11.77;85.91;100413.00;5032626;28;20225;-74
2022/10/05 02:49:17;;;;;;;0.60;0.60;;;;;;;11.78;86.04;100417.28;5031645;28;20259;-74
2022/10/05 02:51:51;;;;;;;0.70;0.70;;;;;;;11.80;85.74;100422.38;5025707;28;20232;-73
2022/10/05 02:54:33;;;;;;;0.50;0.50;;;;;;;11.67;86.83;100418.31;5032413;28;20198;-74
2022/10/05 02:57:04;;;;;;;0.50;0.50;;;;;;;11.48;87.71;100422.94;5032694;28;20198;-75
2022/10/05 02:59:37;;;;;;;0.50;0.50;;;;;;;11.26;89.36;100417.31;5032512;28;20307;-74
2022/10/05 03:02:13;;;;;;;0.60;0.60;;;;;;;11.03;90.31;100427.09;5032329;28;20557;-74
2022/10/05 03:04:48;;;;;;;0.50;0.50;;;;;;;10.90;90.92;100423.03;5029283;28;20259;-74
2022/10/05 03:07:20;;;;;;;0.50;0.50;;;;;;;10.75;92.12;100420.72;5027541;28;20676;-74
2022/10/05 03:09:53;;;;;;;0.50;0.50;;;;;;;10.51;93.66;100417.63;5032363;28;20673;-74
2022/10/05 03:12:36;;;;;;;0.60;0.60;;;;;;;10.39;95.00;100412.66;5032311;28;20354;-74
2022/10/05 03:15:19;;;;;;;0.53;0.53;;;;;;;10.36;95.97;100420.41;5031924;28;20205;-74
2022/10/05 03:17:58;;;;;;;0.60;0.60;;;;;;;10.14;96.76;100389.94;5031736;28;20197;-74
2022/10/05 03:20:35;;;;;;;0.47;0.47;;;;;;;10.30;97.09;100423.03;5032335;28;20208;-74
2022/10/05 03:23:04;;;;;;;0.60;0.60;;;;;;;10.36;96.51;100420.41;5031790;28;20201;-74
2022/10/05 03:25:52;;;;;;;0.63;0.63;;;;;;;10.39;96.33;100428.03;5031856;28;20658;-74
2022/10/05 03:28:24;;;;;;;0.50;0.50;;;;;;;10.43;95.57;100429.72;5028773;28;20687;-74
2022/10/05 03:31:00;;;;;;;0.60;0.60;;;;;;;10.38;95.00;100421.22;5030682;28;20193;-74
2022/10/05 03:33:40;;;;;;;0.50;0.50;;;;;;;10.44;94.81;100430.53;5031638;28;20632;-74
2022/10/05 03:36:15;;;;;;;0.70;0.70;;;;;;;10.38;94.67;100421.22;5030724;28;20284;-73
2022/10/05 03:38:48;;;;;;;0.60;0.60;;;;;;;10.49;94.75;100437.31;5031931;28;20259;-74
2022/10/05 03:41:21;;;;;;;0.60;0.60;;;;;;;10.59;94.28;100434.63;5030637;28;20670;-74
2022/10/05 03:44:11;;;;;;;0.50;0.50;;;;;;;10.61;93.62;100426.03;5031824;28;20205;-74
2022/10/05 03:46:54;;;;;;;0.60;0.60;;;;;;;10.72;93.37;100436.16;5028432;28;20217;-74
2022/10/05 03:49:30;;;;;;;0.50;0.50;;;;;;;10.76;92.81;100443.75;5030286;28;20270;-74
2022/10/05 03:52:05;;;;;;;0.57;0.57;;;;;;;10.68;92.98;100431.91;5027865;28;20204;-74
2022/10/05 03:54:38;;;;;;;0.57;0.57;;;;;;;10.86;93.04;100459.84;5029462;28;20197;-74
2022/10/05 03:57:10;;;;;;;0.50;0.50;;;;;;;10.90;92.65;100462.38;5020657;28;20197;-74
2022/10/05 03:59:42;;;;;;;0.60;0.60;;;;;;;11.00;92.43;100468.22;5029637;28;20225;-74
2022/10/05 04:02:18;;;;;;;0.40;0.40;;;;;;;11.09;91.58;100465.50;5032403;28;20561;-74
2022/10/05 04:04:50;;;;;;;0.40;0.40;;;;;;;11.15;90.36;100462.84;5032152;28;20200;-74
2022/10/05 04:07:32;;;;;;;0.50;0.50;;;;;;;11.21;89.75;100467.88;5032551;28;20221;-73
2022/10/05 04:10:00;;;;;;;0.50;0.50;;;;;;;11.23;89.71;100468.72;5032680;28;20197;-74
2022/10/05 04:12:33;;;;;;;0.50;0.50;;;;;;;11.23;89.50;100471.28;5033201;28;20296;-73
2022/10/05 04:15:04;;;;;;;0.40;0.40;;;;;;;11.28;89.34;100474.63;5034029;28;20263;-73
2022/10/05 04:17:35;;;;;;;0.60;0.60;;;;;;;11.33;88.98;100483.09;5029889;28;20206;-74
2022/10/05 04:20:07;;;;;;;0.50;0.50;;;;;;;11.32;88.09;100486.53;5032740;28;20657;-74
2022/10/05 04:22:39;;;;;;;0.50;0.50;;;;;;;11.25;88.61;100476.38;5037026;28;20599;-74
2022/10/05 04:25:15;;;;;;;0.67;0.67;;;;;;;11.23;88.33;100476.41;5029586;28;20208;-74
2022/10/05 04:27:46;;;;;;;0.57;0.57;;;;;;;11.19;88.70;100479.91;5033655;28;20212;-74
2022/10/05 04:30:17;;;;;;;0.87;0.87;;;;;;;11.11;89.11;100474.03;5034460;28;20205;-74
2022/10/05 04:32:47;;;;;;;0.70;0.70;;;;;;;10.97;89.46;100474.25;5035557;28;20201;-74
2022/10/05 04:35:35;;;;;;;0.40;0.40;;;;;;;10.94;90.23;100473.44;5032305;28;20639;-74
2022/10/05 04:38:15;;;;;;;0.53;0.53;;;;;;;10.92;90.38;100473.44;5031810;28;20609;-74
2022/10/05 04:40:56;;;;;;;0.60;0.60;;;;;;;10.91;90.35;100479.47;5030365;28;20197;-74
2022/10/05 04:43:34;;;;;;;0.57;0.57;;;;;;;10.96;90.31;100482.81;5031264;28;20259;-74
2022/10/05 04:46:16;;;;;;;0.40;0.40;;;;;;;10.98;90.05;100486.22;5031687;28;20665;-74
2022/10/05 04:48:58;;;;;;;0.63;0.63;;;;;;;10.92;90.56;100486.28;5032093;28;20645;-74
2022/10/05 04:51:37;;;;;;;0.63;0.63;;;;;;;10.96;90.69;100490.50;5034976;28;20205;-74
2022/10/05 04:54:15;;;;;;;0.67;0.67;;;;;;;11.01;90.33;100503.28;5023398;28;20212;-74
2022/10/05 04:56:45;;;;;;;0.40;0.40;;;;;;;10.98;90.32;100490.50;5032240;28;20188;-73
2022/10/05 04:59:36;;;;;;;0.50;0.50;;;;;;;11.02;90.87;100492.97;5034300;28;20712;-73
2022/10/05 05:02:12;;;;;;;0.53;0.53;;;;;;;11.00;91.03;100478.47;5028866;28;20223;-74
2022/10/05 05:04:54;;;;;;;0.50;0.50;;;;;;;11.12;91.10;100493.69;5031166;28;20216;-73
2022/10/05 05:07:34;;;;;;;0.50;0.50;;;;;;;11.20;90.99;100502.13;5031324;28;20279;-74
2022/10/05 05:10:31;;;;;;;0.60;0.60;;;;;;;11.26;90.94;100507.16;5031007;28;20200;-74
2022/10/05 05:13:15;;;;;;;0.47;0.47;;;;;;;11.36;90.70;100508.72;5029854;28;20731;-74
2022/10/05 05:15:50;;;;;;;0.53;0.53;;;;;;;11.40;89.97;100507.81;5031005;28;20279;-73
2022/10/05 05:18:34;;;;;;;0.50;0.50;;;;;;;11.48;89.79;100518.78;5031201;28;20598;-74
2022/10/05 05:21:11;;;;;;;0.60;0.60;;;;;;;11.57;89.46;100525.50;5031792;28;20213;-73
2022/10/05 05:23:44;;;;;;;0.50;0.50;;;;;;;11.66;89.43;100522.81;5030882;28;20684;-74
2022/10/05 05:26:21;;;;;;;0.60;0.60;;;;;;;11.67;89.49;100514.19;5031322;28;20194;-73
2022/10/05 05:28:54;;;;;;;0.53;0.53;;;;;;;11.81;89.26;100527.69;5029402;28;20259;-73
2022/10/05 05:31:34;;;;;;;0.50;0.50;;;;;;;11.67;89.17;100496.22;5027975;28;20306;-73
2022/10/05 05:34:12;;;;;;;0.40;0.40;;;;;;;12.05;88.64;100541.84;5029309;28;20209;-72
2022/10/05 05:36:52;;;;;;;0.50;0.50;;;;;;;12.29;87.84;100546.53;5027460;28;20255;-72
2022/10/05 05:39:37;;;;;;;0.60;0.60;;;;;;;12.46;87.33;100549.63;5030854;28;20259;-73
2022/10/05 05:42:20;;;;;;;0.43;0.43;;;;;;;12.50;86.18;100522.94;5033531;28;20197;-72
2022/10/05 05:44:51;;;;;;;0.50;0.50;;;;;;;12.81;85.31;100548.06;5029387;28;20255;-71
2022/10/05 05:47:23;;;;;;;0.50;0.50;;;;;;;12.94;83.67;100552.91;5031135;28;20359;-71
2022/10/05 05:50:05;;;;;;;0.40;0.40;;;;;;;13.00;83.24;100551.94;5031849;28;20201;-71
2022/10/05 05:52:38;;;;;;;0.70;0.70;;;;;;;13.17;82.59;100569.63;5032142;28;20252;-73
2022/10/05 05:55:13;;;;;;;0.50;0.50;;;;;;;13.17;82.83;100567.91;5032908;28;20670;-73
2022/10/05 05:57:44;;;;;;;0.50;0.50;;;;;;;13.26;82.39;100574.56;5030845;28;20193;-73
2022/10/05 06:00:21;;;;;;;0.60;0.60;;;;;;;13.19;82.64;100568.69;5030753;28;20236;-75
2022/10/05 06:02:54;;;;;;;0.77;0.77;;;;;;;13.23;82.64;100580.63;5027081;28;20289;-74
2022/10/05 06:05:30;;;;;;;0.70;0.70;;;;;;;13.23;83.27;100585.78;5026179;28;20674;-73
2022/10/05 06:08:01;;;;;;;0.50;0.50;;;;;;;13.21;83.85;100584.13;5021044;28;20220;-77
2022/10/05 06:10:40;;;;;;;0.50;0.50;;;;;;;13.25;84.28;100589.16;5016751;28;20252;-74
2022/10/05 06:13:16;;;;;;;0.50;0.50;;;;;;;13.29;85.29;100590.78;5013879;28;20205;-73
2022/10/05 06:15:47;;;;;;;0.60;0.60;;;;;;;13.42;85.46;100602.53;5017827;28;20292;-74
2022/10/05 06:18:18;;;;;;;0.50;0.50;;;;;;;13.41;84.63;100585.38;5022428;28;20197;-74
2022/10/05 06:20:52;;;;;;;0.80;0.80;;;;;;;13.58;84.43;100593.56;5025763;28;20268;-73
2022/10/05 06:23:23;;;;;;;0.50;0.50;;;;;;;13.76;84.97;100614.63;5018703;28;20197;-74
2022/10/05 06:26:11;;;;;;;0.40;0.40;;;;;;;13.86;84.71;100613.53;5020031;28;20579;-73
2022/10/05 06:28:38;;;;;;;0.40;0.40;;;;;;;13.97;83.59;100616.69;5015008;28;20292;-74
2022/10/05 06:31:18;;;;;;;0.47;0.47;;;;;;;14.10;83.44;100618.06;5025757;28;20214;-70
2022/10/05 06:33:50;;;;;;;0.43;0.43;;;;;;;14.23;83.15;100627.19;5016651;28;20207;-77
2022/10/05 06:36:40;;;;;;;0.50;0.50;;;;;;;14.37;82.46;100635.47;5021212;28;20207;-78
2022/10/05 06:39:35;;;;;;;0.80;0.80;;;;;;;14.49;81.81;100624.81;5022648;28;20209;-73
2022/10/05 06:42:26;;;;;;;0.60;0.60;;;;;;;14.59;81.75;100623.69;5022308;28;20193;-74
2022/10/05 06:45:00;;;;;;;0.53;0.53;;;;;;;14.66;80.25;100625.22;5022874;28;20577;-75
2022/10/05 06:47:35;;;;;;;0.40;0.40;;;;;;;14.77;80.92;100626.63;5022864;28;20220;-74
2022/10/05 06:50:13;;;;;;;0.50;0.50;;;;;;;14.89;80.53;100631.47;5018327;28;20212;-73
2022/10/05 06:53:02;;;;;;;0.57;0.57;;;;;;;14.98;79.76;100628.63;5024975;28;20292;-71
2022/10/05 06:55:39;;;;;;;0.50;0.50;;;;;;;14.99;79.59;100594.19;4999851;28;20264;-71
2022/10/05 06:58:22;;;;;;;0.50;0.50;;;;;;;15.31;79.61;100622.50;5016240;28;20211;-69
2022/10/05 07:00:54;;;;;;;0.50;0.50;;;;;;;15.38;78.00;100616.22;5021007;28;20221;-70
2022/10/05 07:03:31;;;;;;;0.50;0.50;;;;;;;15.52;78.47;100614.09;5021159;28;20205;-70
2022/10/05 07:06:06;;;;;;;0.50;0.50;;;;;;;15.74;77.26;100622.88;5018564;28;20196;-70
2022/10/05 07:08:51;;;;;;;0.50;0.50;;;;;;;15.98;75.44;100622.97;5018149;28;20220;-70
2022/10/05 07:11:33;;;;;;;0.60;0.60;;;;;;;16.18;74.23;100621.44;5011293;28;20577;-69
2022/10/05 07:14:16;;;;;;;0.40;0.40;;;;;;;16.44;71.91;100617.97;5014216;28;20614;-69
2022/10/05 07:16:55;;;;;;;0.57;0.57;;;;;;;16.71;71.11;100618.72;5016883;28;20208;-70
2022/10/05 07:19:34;;;;;;;0.60;0.60;;;;;;;16.80;70.46;100595.94;5032664;28;20204;-71
2022/10/05 07:22:27;;;;;;;0.60;0.60;;;;;;;17.12;68.60;100612.06;5023208;28;20206;-70
2022/10/05 07:25:04;;;;;;;0.50;0.50;;;;;;;17.25;67.84;100608.09;5019173;28;20197;-70
2022/10/05 07:27:35;;;;;;;0.60;0.60;;;;;;;17.45;66.19;100621.13;5013574;28;20216;-71
2022/10/05 07:30:06;;;;;;;0.43;0.43;;;;;;;17.49;65.60;100617.50;5011021;28;20206;-69
2022/10/05 07:32:36;;;;;;;0.43;0.43;;;;;;;17.64;65.16;100616.09;5013560;28;20673;-70
2022/10/05 07:37:53;;;;;;;0.40;0.40;;;;;;;17.73;63.43;100606.22;5017904;28;20204;-70
2022/10/05 07:38:10;;;;;;;0.40;0.40;;;;;;;17.87;62.48;100618.59;5013746;28;20666;-70
2022/10/05 07:40:41;;;;;;;0.70;0.70;;;;;;;17.76;64.44;100610.41;5028032;28;20653;-71
2022/10/05 07:43:21;;;;;;;0.50;0.50;;;;;;;17.88;63.43;100616.84;4997198;28;20202;-72
2022/10/05 07:45:54;;;;;;;0.60;0.60;;;;;;;18.01;63.33;100618.03;5020901;28;20287;-72
2022/10/05 07:48:22;;;;;;;0.60;0.60;;;;;;;18.28;63.03;100615.16;5016682;28;20309;-71
2022/10/05 07:50:58;;;;;;;0.63;0.63;;;;;;;18.31;60.92;100599.44;5024298;28;20198;-70
2022/10/05 07:53:30;;;;;;;0.50;0.50;;;;;;;18.34;61.29;100594.13;5017956;28;20655;-70
2022/10/05 07:56:02;;;;;;;0.40;0.40;;;;;;;18.63;59.73;100631.00;5024073;28;22033;-72
2022/10/05 07:58:35;;;;;;;0.57;0.57;;;;;;;18.66;58.27;100636.06;5005268;28;20207;-69
2022/10/05 08:01:08;;;;;;;0.50;0.50;;;;;;;18.66;59.81;100631.69;5000822;28;20260;-71
2022/10/05 08:03:51;;;;;;;0.60;0.60;;;;;;;18.76;58.99;100635.59;5007220;28;20646;-70
2022/10/05 08:06:40;;;;;;;0.40;0.40;;;;;;;18.93;58.33;100639.19;5003624;28;20203;-70
2022/10/05 08:09:21;;;;;;;2.20;1.97;;;;;;;19.12;57.36;100640.06;5009010;28;20219;-70
2022/10/05 08:11:55;;;;;;;2.23;2.23;;;;;;;19.26;58.15;100622.03;5009515;28;20208;-70
2022/10/05 08:14:32;;;;;;;1.27;1.27;;;;;;;19.33;57.77;100639.06;5011576;28;20198;-71
2022/10/05 08:17:05;;;;;;;0.90;0.90;;;;;;;19.41;56.14;100631.78;5009889;28;20673;-71
2022/10/05 08:19:37;;;;;;;0.70;0.70;;;;;;;19.32;56.49;100634.78;5011306;28;20260;-71
2022/10/05 08:22:08;;;;;;;1.43;1.37;;;;;;;19.45;56.18;100633.31;5011595;28;20218;-71
2022/10/05 08:24:43;;;;;;;0.80;0.80;;;;;;;19.46;55.42;100640.19;5009894;28;20210;-70
2022/10/05 08:27:16;;;;;;;0.83;0.83;;;;;;;19.48;56.64;100612.38;5012214;28;20655;-71
2022/10/05 08:29:53;;;;;;;0.97;0.93;;;;;;;19.79;55.90;100633.41;5007690;28;20198;-70
2022/10/05 08:32:24;;;;;;;0.60;0.60;;;;;;;19.95;56.94;100615.28;5009843;28;20227;-71
2022/10/05 08:34:58;;;;;;;0.87;0.87;;;;;;;20.16;53.43;100623.78;5010586;28;20371;-71
2022/10/05 08:37:28;;;;;;;0.83;0.83;;;;;;;20.19;53.67;100632.28;5009007;28;20601;-71
2022/10/05 08:40:04;;;;;;;0.73;0.73;;;;;;;20.22;53.42;100629.53;5007816;28;20276;-71
2022/10/05 08:42:59;;;;;;;0.60;0.60;;;;;;;20.19;52.90;100626.25;5009277;28;20264;-70
2022/10/05 08:45:59;;;;;;;1.00;1.00;;;;;;;20.09;52.72;100622.41;5006937;28;20735;-70
2022/10/05 08:48:42;;;;;;;0.50;0.50;;;;;;;20.27;54.73;100613.69;5004110;28;20222;-69
2022/10/05 08:51:32;;;;;;;1.10;1.10;;;;;;;20.40;54.24;100619.97;5008282;28;20213;-70
2022/10/05 08:54:26;;;;;;;0.30;0.30;;;;;;;20.56;52.63;100613.03;5009451;28;20593;-72
2022/10/05 08:57:14;;;;;;;0.50;0.50;;;;;;;20.63;52.08;100609.19;5010040;28;20209;-73
2022/10/05 09:00:09;;;;;;;0.37;0.37;;;;;;;20.65;52.06;100606.50;5010448;28;20258;-74
2022/10/05 09:03:05;;;;;;;0.60;0.60;;;;;;;20.73;52.65;100605.19;5024823;28;20313;-72
2022/10/05 09:06:02;;;;;;;0.40;0.40;;;;;;;20.76;51.04;100602.41;5031564;28;20200;-75
2022/10/05 09:08:57;;;;;;;0.40;0.40;;;;;;;20.89;53.66;100608.66;4998042;28;20217;-74
2022/10/05 09:11:32;;;;;;;0.60;0.60;;;;;;;20.87;52.47;100583.59;5031177;28;20204;-74
2022/10/05 09:14:16;;;;;;;0.43;0.43;;;;;;;21.20;50.38;100593.97;5031238;28;20627;-73
2022/10/05 09:17:15;;;;;;;0.40;0.40;;;;;;;21.24;52.19;100587.69;5029825;28;20241;-74
2022/10/05 09:20:02;;;;;;;0.40;0.40;;;;;;;21.37;50.50;100593.91;5030921;28;20193;-72
2022/10/05 09:22:46;;;;;;;0.30;0.30;;;;;;;21.43;50.33;100583.97;5028341;28;20205;-75
2022/10/05 09:25:22;;;;;;;0.47;0.47;;;;;;;21.53;50.49;100594.72;5030196;28;20703;-75
2022/10/05 09:27:54;;;;;;;0.30;0.30;;;;;;;21.62;48.15;100591.59;5031143;28;20223;-74
2022/10/05 09:30:34;;;;;;;0.30;0.30;;;;;;;21.59;46.59;100589.16;5031803;28;20209;-72
2022/10/05 09:33:39;;;;;;;0.50;0.50;;;;;;;21.55;47.50;100592.03;5030224;28;20197;-73
2022/10/05 09:36:49;;;;;;;0.50;0.50;;;;;;;21.60;48.95;100585.63;5022673;28;20663;-69
2022/10/05 09:39:49;;;;;;;0.50;0.50;;;;;;;21.74;48.75;100587.47;4991399;28;20215;-73
2022/10/05 09:42:52;;;;;;;0.50;0.50;;;;;;;21.94;47.66;100595.00;5021480;28;20205;-75
2022/10/05 09:45:47;;;;;;;0.50;0.50;;;;;;;22.02;43.56;100592.78;5024741;28;20205;-75
2022/10/05 09:48:53;;;;;;;0.40;0.40;;;;;;;22.03;45.60;100591.88;5023821;28;20299;-74
2022/10/05 09:51:52;;;;;;;0.67;0.67;;;;;;;21.99;45.36;100574.69;5026501;28;20247;-73
2022/10/05 09:55:18;;;;;;;0.50;0.50;;;;;;;22.29;46.29;100590.34;5014228;28;20206;-74
2022/10/05 09:58:21;;;;;;;0.47;0.47;;;;;;;22.20;41.82;100588.25;4946826;29;20287;-73
2022/10/05 10:01:05;;;;;;;0.47;0.47;;;;;;;22.24;46.01;100584.53;4949527;28;20211;-74
2022/10/05 10:03:55;;;;;;;0.30;0.30;;;;;;;22.34;41.79;100591.72;5022535;28;20229;-74
2022/10/05 10:06:45;;;;;;;0.30;0.30;;;;;;;22.32;41.06;100593.59;5024016;28;20316;-73
2022/10/05 10:09:31;;;;;;;0.50;0.50;;;;;;;22.52;42.19;100593.22;5028457;28;20304;-74
2022/10/05 10:12:28;;;;;;;0.30;0.30;;;;;;;22.57;43.20;100595.56;5030953;28;20689;-71
2022/10/05 10:15:28;;;;;;;0.37;0.37;;;;;;;22.45;42.17;100594.56;5028149;28;20209;-73
2022/10/05 10:18:21;;;;;;;0.40;0.40;;;;;;;22.43;44.45;100591.19;5029467;28;20197;-73
2022/10/05 10:21:01;;;;;;;0.30;0.30;;;;;;;22.23;45.79;100580.25;5028683;28;20198;-75
2022/10/05 10:23:59;;;;;;;0.40;0.40;;;;;;;22.18;41.51;100558.78;5027974;28;20546;-73
2022/10/05 10:26:55;;;;;;;0.33;0.33;;;;;;;22.38;42.45;100581.94;5030763;28;20205;-72
2022/10/05 10:29:55;;;;;;;0.30;0.30;;;;;;;21.94;40.50;100545.38;5028644;28;20224;-69
2022/10/05 10:33:15;;;;;;;0.40;0.40;;;;;;;21.91;41.80;100580.34;5035893;28;20213;-74
2022/10/05 10:35:50;;;;;;;0.30;0.30;;;;;;;21.92;40.85;100579.44;5030890;28;20201;-73
2022/10/05 10:38:30;;;;;;;0.30;0.30;;;;;;;21.95;40.16;100573.19;5034705;28;20200;-74
2022/10/05 10:41:46;;;;;;;0.40;0.40;;;;;;;21.78;40.72;100578.50;5035143;28;20213;-69
2022/10/05 10:44:45;;;;;;;0.40;0.40;;;;;;;21.85;41.84;100580.69;5025325;28;20706;-74
2022/10/05 10:47:38;;;;;;;0.30;0.30;;;;;;;22.07;41.41;100566.41;5023869;28;20741;-74
2022/10/05 10:50:41;;;;;;;0.40;0.40;;;;;;;22.21;41.32;100572.50;5027339;28;20280;-74
2022/10/05 10:53:49;;;;;;;0.30;0.30;;;;;;;22.05;40.67;100573.50;5008184;28;20232;-73
2022/10/05 10:56:33;;;;;;;0.40;0.40;;;;;;;22.06;41.68;100560.34;5027282;28;20205;-73
2022/10/05 10:59:42;;;;;;;0.30;0.30;;;;;;;22.14;40.59;100565.09;5033163;28;20207;-74
2022/10/05 11:02:36;;;;;;;0.40;0.40;;;;;;;22.25;41.18;100565.31;4965198;28;20237;-75
2022/10/05 11:05:35;;;;;;;0.40;0.40;;;;;;;22.42;43.45;100562.53;5030591;28;20232;-74
2022/10/05 11:08:51;;;;;;;0.30;0.30;;;;;;;22.48;38.83;100567.38;5020559;28;20225;-72
2022/10/05 11:11:50;;;;;;;0.20;0.20;;;;;;;22.76;38.71;100559.56;5031241;28;20487;-64
2022/10/05 11:14:41;;;;;;;0.40;0.40;;;;;;;23.01;38.86;100562.31;5017969;28;20293;-63
2022/10/05 11:17:23;;;;;;;0.37;0.37;;;;;;;22.94;37.97;100557.59;5032976;28;20209;-63
2022/10/05 11:20:03;;;;;;;0.20;0.20;;;;;;;22.39;38.43;100528.75;5029609;28;20251;-64
2022/10/05 11:22:54;;;;;;;0.33;0.33;;;;;;;22.58;42.65;100541.53;5031026;28;20202;-63
2022/10/05 11:25:43;;;;;;;0.40;0.40;;;;;;;22.67;38.10;100543.59;5032540;28;20663;-64
2022/10/05 11:28:54;;;;;;;0.40;0.40;;;;;;;22.60;37.84;100543.09;5032539;28;20236;-64
2022/10/05 11:31:39;;;;;;;0.30;0.30;;;;;;;22.47;38.23;100536.94;5016392;28;20220;-63
2022/10/05 11:34:46;;;;;;;0.57;0.57;;;;;;;22.22;39.56;100535.00;5032916;28;20653;-64
2022/10/05 11:37:39;;;;;;;0.90;0.60;;;;;;;22.02;39.18;100522.28;5031034;28;20202;-63
2022/10/05 11:40:32;;;;;;;0.30;0.30;;;;;;;22.20;39.58;100513.34;5021519;28;20194;-63
2022/10/05 11:43:37;;;;;;;0.40;0.40;;;;;;;22.41;39.48;100526.88;5032529;28;20689;-63
2022/10/05 11:46:10;;;;;;;0.40;0.40;;;;;;;22.39;38.95;100526.16;5030537;28;20770;-64
2022/10/05 11:48:48;;;;;;;0.40;0.40;;;;;;;22.48;39.93;100518.59;5032212;28;20217;-64
2022/10/05 11:51:29;;;;;;;0.50;0.50;;;;;;;22.42;38.86;100507.66;5032204;28;20288;-63
2022/10/05 11:54:18;;;;;;;0.30;0.30;;;;;;;22.62;40.02;100520.31;5030883;28;20198;-64
2022/10/05 11:56:49;;;;;;;0.40;0.40;;;;;;;22.62;39.31;100522.13;5031925;28;20251;-63
2022/10/05 11:59:25;;;;;;;0.30;0.30;;;;;;;22.58;39.61;100508.41;5032436;28;20193;-64
2022/10/05 12:02:00;;;;;;;0.30;0.30;;;;;;;22.64;37.88;100518.47;5031978;28;20225;-63
2022/10/05 12:04:39;;;;;;;0.30;0.30;;;;;;;22.67;38.65;100507.84;5030506;28;20259;-63
2022/10/05 12:07:14;;;;;;;0.30;0.30;;;;;;;22.65;38.82;100507.06;5031865;28;20197;-64
2022/10/05 12:10:16;;;;;;;0.30;0.30;;;;;;;22.64;37.32;100509.78;5032007;28;20217;-63
2022/10/05 12:12:52;;;;;;;0.30;0.30;;;;;;;22.67;38.38;100512.25;5032159;28;20208;-63
2022/10/05 12:15:26;;;;;;;0.33;0.33;;;;;;;22.57;38.62;100501.47;5032049;28;20589;-64
2022/10/05 12:18:00;;;;;;;0.37;0.37;;;;;;;22.48;38.89;100483.75;5030263;28;20280;-64
2022/10/05 12:20:36;;;;;;;0.33;0.33;;;;;;;22.63;38.50;100501.09;5029856;28;20653;-64
2022/10/05 12:23:10;;;;;;;0.30;0.30;;;;;;;22.75;39.08;100489.91;5031511;28;20254;-64
2022/10/05 12:25:42;;;;;;;0.90;0.90;;;;;;;22.78;38.91;100479.25;5031818;28;20204;-65
2022/10/05 12:28:13;;;;;;;6.27;5.63;;;;;;;22.77;37.03;100482.81;5031935;28;20202;-65